Time;durP1;ratioP1;P1;durP2;ratioP2;P2;SDS_P1;SDS_P2;PMS_P1;PMS_P2;Temp;Humidity;BMP_temperature;BMP_pressure;BME280_temperature;BME280_humidity;BME280_pressure;Samples;Min_cycle;Max_cycle;Signal;HPM_P1;HPM_P2
2022/08/24 00:01:06;;;;;;;2.35;2.00;;;21.90;62.10;;;;;;5053572;28;20684;-59
2022/08/24 00:03:34;;;;;;;2.30;2.10;;;21.90;63.10;;;;;;5053699;28;20189;-59
2022/08/24 00:05:59;;;;;;;3.60;2.53;;;21.90;62.80;;;;;;5052503;28;20190;-59
2022/08/24 00:08:26;;;;;;;3.17;2.50;;;21.80;62.80;;;;;;5053507;28;20185;-58
2022/08/24 00:10:51;;;;;;;4.45;2.20;;;21.70;63.30;;;;;;5052606;28;20188;-59
2022/08/24 00:13:17;;;;;;;3.33;2.10;;;21.60;63.30;;;;;;5053670;28;20205;-59
2022/08/24 00:15:43;;;;;;;4.13;2.40;;;21.50;64.20;;;;;;5053650;28;20188;-59
2022/08/24 00:18:09;;;;;;;5.63;2.60;;;21.50;64.00;;;;;;5053599;28;20278;-58
2022/08/24 00:20:36;;;;;;;3.60;2.47;;;21.40;64.40;;;;;;5053682;28;20173;-58
2022/08/24 00:23:02;;;;;;;4.30;2.30;;;21.40;64.30;;;;;;5053005;28;20652;-59
2022/08/24 00:25:27;;;;;;;3.78;2.40;;;21.30;64.60;;;;;;5053319;28;20177;-59
2022/08/24 00:27:53;;;;;;;3.15;2.30;;;21.30;64.90;;;;;;5053500;28;20707;-59
2022/08/24 00:30:19;;;;;;;2.55;2.30;;;21.20;65.00;;;;;;5053152;28;20185;-59
2022/08/24 00:32:47;;;;;;;3.92;2.60;;;21.10;65.40;;;;;;5053355;28;20217;-59
2022/08/24 00:35:17;;;;;;;3.53;2.40;;;21.10;65.80;;;;;;5052988;28;20600;-59
2022/08/24 00:37:43;;;;;;;3.65;2.30;;;21.00;66.30;;;;;;5052972;28;20269;-58
2022/08/24 00:40:15;;;;;;;2.83;2.40;;;20.90;66.90;;;;;;5052865;28;20191;-59
2022/08/24 00:42:40;;;;;;;3.92;2.17;;;20.90;67.50;;;;;;5053149;28;20700;-59
2022/08/24 00:45:09;;;;;;;3.35;2.33;;;20.80;68.00;;;;;;5052753;28;20213;-59
2022/08/24 00:47:43;;;;;;;2.95;2.45;;;20.70;68.60;;;;;;5052994;28;20189;-59
2022/08/24 00:50:13;;;;;;;2.40;2.20;;;20.60;68.80;;;;;;5052970;28;20268;-58
2022/08/24 00:52:42;;;;;;;2.72;2.40;;;20.50;69.00;;;;;;5052535;28;20202;-58
2022/08/24 00:55:33;;;;;;;5.10;2.47;;;20.40;69.40;;;;;;5052631;28;20217;-59
2022/08/24 00:58:03;;;;;;;3.78;2.65;;;20.40;69.60;;;;;;5052799;28;20656;-59
2022/08/24 01:00:35;;;;;;;4.05;2.53;;;20.40;69.40;;;;;;5052484;28;20276;-59
2022/08/24 01:03:04;;;;;;;5.43;2.65;;;20.40;69.50;;;;;;5052672;28;20239;-59
2022/08/24 01:05:33;;;;;;;5.72;2.75;;;20.30;69.10;;;;;;5052594;28;20169;-58
2022/08/24 01:08:00;;;;;;;3.78;2.55;;;20.30;68.90;;;;;;5052613;28;20169;-59
2022/08/24 01:10:28;;;;;;;2.97;2.47;;;20.30;69.20;;;;;;5052229;28;20181;-58
2022/08/24 01:12:59;;;;;;;4.38;2.83;;;20.30;69.10;;;;;;5052560;28;20347;-59
2022/08/24 01:15:24;;;;;;;3.00;2.63;;;20.30;69.30;;;;;;5052143;28;20678;-59
2022/08/24 01:20:34;;;;;;;2.97;2.40;;;20.20;69.40;;;;;;5052315;28;20185;-58
2022/08/24 01:23:33;;;;;;;4.78;2.65;;;20.20;69.80;;;;;;5051009;28;20185;-59
2022/08/24 01:25:59;;;;;;;2.83;2.30;;;20.10;70.00;;;;;;5051634;28;20201;-59
2022/08/24 01:28:26;;;;;;;2.60;2.40;;;20.00;70.40;;;;;;5050845;28;20272;-59
2022/08/24 01:30:51;;;;;;;4.63;3.83;;;20.00;70.60;;;;;;5052128;28;20176;-59
2022/08/24 01:33:27;;;;;;;9.80;6.15;;;20.00;70.60;;;;;;5052062;28;20213;-59
2022/08/24 01:35:57;;;;;;;6.07;3.58;;;20.00;71.00;;;;;;5051644;28;20181;-59
2022/08/24 01:38:24;;;;;;;11.32;8.02;;;19.90;71.20;;;;;;5050800;28;20178;-59
2022/08/24 01:40:58;;;;;;;7.45;4.43;;;19.90;71.40;;;;;;5051738;28;20334;-59
2022/08/24 01:43:24;;;;;;;6.90;4.68;;;19.90;71.60;;;;;;5051862;28;20180;-59
2022/08/24 01:45:50;;;;;;;5.50;3.97;;;19.80;71.80;;;;;;5051637;28;20181;-59
2022/08/24 01:48:16;;;;;;;4.78;3.00;;;19.80;72.20;;;;;;5052157;28;20873;-59
2022/08/24 01:50:41;;;;;;;4.45;2.38;;;19.80;73.30;;;;;;5051462;28;20209;-58
2022/08/24 01:53:07;;;;;;;5.60;3.10;;;19.70;72.70;;;;;;5051712;28;20801;-59
2022/08/24 01:55:33;;;;;;;4.57;3.40;;;19.70;73.20;;;;;;5051612;28;20652;-59
2022/08/24 01:58:00;;;;;;;7.22;4.78;;;19.70;73.20;;;;;;5051717;28;20208;-59
2022/08/24 02:00:26;;;;;;;8.27;5.13;;;19.70;73.50;;;;;;5051525;28;20185;-59
2022/08/24 02:02:51;;;;;;;5.93;4.38;;;19.60;73.80;;;;;;5051486;28;20291;-59
2022/08/24 02:05:18;;;;;;;6.32;4.78;;;19.60;74.20;;;;;;5051484;28;20185;-59
2022/08/24 02:07:44;;;;;;;6.03;4.35;;;19.60;74.30;;;;;;5051617;28;20209;-59
2022/08/24 02:10:11;;;;;;;7.10;4.63;;;19.60;74.40;;;;;;5051416;28;20653;-59
2022/08/24 02:12:39;;;;;;;4.57;3.05;;;19.60;74.80;;;;;;5031641;28;20209;-58
2022/08/24 02:15:07;;;;;;;5.97;3.50;;;19.60;74.60;;;;;;5031817;28;20182;-58
2022/08/24 02:17:33;;;;;;;4.07;3.25;;;19.60;74.80;;;;;;5031624;28;20261;-58
2022/08/24 02:20:00;;;;;;;3.53;2.50;;;19.60;74.70;;;;;;5031343;28;20247;-58
2022/08/24 02:22:25;;;;;;;3.97;2.88;;;19.50;74.30;;;;;;5050444;28;20174;-58
2022/08/24 02:24:51;;;;;;;2.72;2.22;;;19.60;74.10;;;;;;5051122;28;20194;-59
2022/08/24 02:27:17;;;;;;;5.57;2.45;;;19.60;73.20;;;;;;5051132;28;20533;-58
2022/08/24 02:29:42;;;;;;;5.30;2.50;;;19.60;72.40;;;;;;5051384;28;20185;-58
2022/08/24 02:32:09;;;;;;;2.78;2.50;;;19.50;71.90;;;;;;5050891;28;20181;-58
2022/08/24 02:34:35;;;;;;;2.00;1.90;;;19.50;72.00;;;;;;5055344;28;20256;-58
2022/08/24 02:37:00;;;;;;;6.05;3.22;;;19.40;72.20;;;;;;5054987;28;20216;-58
2022/08/24 02:39:26;;;;;;;14.65;6.72;;;19.30;72.30;;;;;;5055102;28;20217;-59
2022/08/24 02:41:52;;;;;;;24.27;10.93;;;19.30;73.10;;;;;;5055063;28;20180;-59
2022/08/24 02:44:18;;;;;;;20.38;8.98;;;19.20;73.10;;;;;;5055350;28;20174;-58
2022/08/24 02:46:43;;;;;;;10.50;5.68;;;19.20;73.50;;;;;;5054476;28;20246;-60
2022/08/24 02:49:10;;;;;;;8.70;3.42;;;19.10;73.80;;;;;;5055249;28;20177;-58
2022/08/24 02:51:35;;;;;;;5.60;2.55;;;19.00;73.80;;;;;;5054944;28;20264;-58
2022/08/24 02:54:02;;;;;;;3.08;2.30;;;19.00;74.10;;;;;;5054638;28;20299;-58
2022/08/24 02:56:31;;;;;;;3.42;2.60;;;19.00;74.30;;;;;;5053178;28;20169;-58
2022/08/24 02:58:58;;;;;;;3.50;2.10;;;18.90;74.30;;;;;;5054871;28;20242;-59
2022/08/24 03:01:25;;;;;;;3.92;2.10;;;18.90;74.10;;;;;;5054472;28;20611;-58
2022/08/24 03:03:50;;;;;;;2.95;2.47;;;18.90;74.30;;;;;;5055048;28;20170;-58
2022/08/24 03:06:17;;;;;;;4.30;2.60;;;18.80;74.00;;;;;;5054549;28;20528;-59
2022/08/24 03:08:43;;;;;;;2.67;2.20;;;18.80;74.20;;;;;;5054807;28;20193;-59
2022/08/24 03:11:09;;;;;;;2.85;2.13;;;18.70;74.50;;;;;;5053931;28;20586;-59
2022/08/24 03:13:36;;;;;;;2.42;2.10;;;18.70;75.00;;;;;;5054697;28;20213;-58
2022/08/24 03:16:02;;;;;;;3.10;2.72;;;18.60;75.30;;;;;;5054094;28;20268;-58
2022/08/24 03:18:28;;;;;;;12.02;6.43;;;18.60;75.30;;;;;;5054723;28;20260;-58
2022/08/24 03:20:55;;;;;;;10.65;5.90;;;18.50;76.10;;;;;;5054177;28;20686;-59
2022/08/24 03:23:22;;;;;;;8.07;4.30;;;18.50;76.30;;;;;;5054033;28;20672;-58
2022/08/24 03:25:48;;;;;;;15.20;7.47;;;18.50;76.40;;;;;;5054183;28;20178;-59
2022/08/24 03:28:14;;;;;;;18.35;8.63;;;18.50;76.80;;;;;;5054430;28;20182;-58
2022/08/24 03:30:41;;;;;;;16.92;7.32;;;18.40;76.80;;;;;;5054402;28;20652;-58
2022/08/24 03:33:07;;;;;;;15.80;8.38;;;18.40;77.00;;;;;;5054000;28;20228;-58
2022/08/24 03:35:32;;;;;;;12.18;5.85;;;18.40;77.00;;;;;;5054437;28;20174;-58
2022/08/24 03:37:59;;;;;;;10.10;4.43;;;18.30;77.20;;;;;;5053986;28;20189;-58
2022/08/24 03:40:25;;;;;;;3.15;2.40;;;18.30;77.20;;;;;;5053942;28;20192;-58
2022/08/24 03:42:51;;;;;;;4.63;2.70;;;18.30;77.50;;;;;;5053868;28;20189;-59
2022/08/24 03:45:17;;;;;;;3.95;2.40;;;18.20;77.40;;;;;;5053150;28;20200;-58
2022/08/24 03:47:44;;;;;;;3.60;1.90;;;18.20;77.70;;;;;;5053765;28;20221;-59
2022/08/24 03:50:10;;;;;;;4.88;2.40;;;18.20;78.30;;;;;;5054043;28;20169;-58
2022/08/24 03:52:36;;;;;;;2.67;1.98;;;18.10;78.60;;;;;;5053305;28;20225;-58
2022/08/24 03:55:04;;;;;;;2.38;2.17;;;18.10;78.70;;;;;;5053594;28;20652;-58
2022/08/24 03:57:30;;;;;;;3.17;2.10;;;18.00;78.70;;;;;;5053487;28;20188;-58
2022/08/24 03:59:56;;;;;;;2.50;2.10;;;17.90;78.90;;;;;;5052578;28;20705;-58
2022/08/24 04:02:22;;;;;;;2.42;2.22;;;18.00;79.70;;;;;;5053143;28;20308;-58
2022/08/24 04:04:47;;;;;;;2.85;2.30;;;17.90;80.10;;;;;;5053834;28;20261;-59
2022/08/24 04:07:13;;;;;;;3.88;2.40;;;18.00;80.40;;;;;;5053012;28;20311;-58
2022/08/24 04:09:38;;;;;;;3.63;2.72;;;18.10;80.90;;;;;;5053017;28;20196;-58
2022/08/24 04:12:04;;;;;;;2.72;2.30;;;18.10;80.80;;;;;;5053170;28;20184;-58
2022/08/24 04:14:30;;;;;;;1.88;1.75;;;18.10;80.90;;;;;;5052448;28;20207;-58
2022/08/24 04:16:55;;;;;;;8.20;4.15;;;18.10;81.20;;;;;;5052916;28;20188;-59
2022/08/24 04:19:21;;;;;;;10.75;4.47;;;18.10;82.50;;;;;;5053069;28;20185;-59
2022/08/24 04:21:46;;;;;;;3.67;2.63;;;18.20;85.10;;;;;;5053212;28;20186;-58
2022/08/24 04:24:12;;;;;;;3.85;2.80;;;18.50;84.10;;;;;;5053354;28;20177;-58
2022/08/24 04:26:40;;;;;;;4.10;2.65;;;18.60;82.60;;;;;;5053390;28;20535;-58
2022/08/24 04:29:08;;;;;;;3.45;2.22;;;18.60;82.70;;;;;;5052642;28;20247;-57
2022/08/24 04:31:38;;;;;;;3.72;2.50;;;18.50;82.70;;;;;;5053083;28;20192;-58
2022/08/24 04:34:04;;;;;;;3.92;2.60;;;18.50;83.20;;;;;;5052247;28;20691;-58
2022/08/24 04:36:31;;;;;;;3.75;2.35;;;18.40;83.30;;;;;;5053143;28;20201;-58
2022/08/24 04:38:56;;;;;;;3.50;2.97;;;18.40;84.40;;;;;;5052516;28;20185;-59
2022/08/24 04:41:22;;;;;;;23.10;14.55;;;18.30;84.90;;;;;;5052594;28;20176;-59
2022/08/24 04:43:49;;;;;;;6.97;5.15;;;18.30;84.70;;;;;;5053249;28;20212;-61
2022/08/24 04:46:17;;;;;;;6.50;3.17;;;18.30;85.20;;;;;;5052672;28;20238;-61
2022/08/24 04:48:45;;;;;;;8.88;5.32;;;18.30;85.70;;;;;;5052812;28;20166;-58
2022/08/24 04:51:13;;;;;;;5.95;4.18;;;18.30;86.60;;;;;;5051914;28;20268;-57
2022/08/24 04:53:40;;;;;;;3.03;2.53;;;18.40;87.10;;;;;;5051374;28;20727;-58
2022/08/24 04:56:11;;;;;;;5.03;3.13;;;18.40;87.10;;;;;;5052571;28;20185;-58
2022/08/24 04:58:38;;;;;;;4.35;2.67;;;18.40;87.60;;;;;;5052451;28;20649;-58
2022/08/24 05:01:18;;;;;;;3.15;2.65;;;18.50;87.10;;;;;;5051225;28;20241;-58
2022/08/24 05:03:45;;;;;;;5.93;3.17;;;18.60;84.90;;;;;;5052589;28;20181;-58
2022/08/24 05:06:13;;;;;;;3.55;2.45;;;18.70;84.10;;;;;;5052516;28;20264;-58
2022/08/24 05:08:39;;;;;;;3.45;2.40;;;18.80;83.00;;;;;;5052463;28;20185;-58
2022/08/24 05:11:07;;;;;;;2.40;2.20;;;19.00;82.70;;;;;;5052193;28;20260;-58
2022/08/24 05:13:34;;;;;;;3.42;2.28;;;19.10;82.20;;;;;;5052407;28;20263;-59
2022/08/24 05:15:59;;;;;;;2.50;2.00;;;19.30;81.70;;;;;;5052180;28;20195;-58
2022/08/24 05:18:28;;;;;;;2.17;1.98;;;19.50;80.70;;;;;;5052482;28;20208;-58
2022/08/24 05:20:54;;;;;;;2.47;1.85;;;19.80;79.30;;;;;;5052147;28;20592;-58
2022/08/24 05:23:21;;;;;;;2.72;2.10;;;19.90;78.50;;;;;;5052351;28;20269;-58
2022/08/24 05:25:47;;;;;;;2.40;2.20;;;20.00;77.90;;;;;;5052144;28;20181;-58
2022/08/24 05:28:12;;;;;;;2.10;1.90;;;20.10;77.40;;;;;;5052163;28;20195;-59
2022/08/24 05:30:38;;;;;;;2.20;2.00;;;20.30;77.10;;;;;;5052060;28;20216;-58
2022/08/24 05:33:04;;;;;;;2.22;2.00;;;20.50;76.60;;;;;;5051977;28;20209;-58
2022/08/24 05:35:29;;;;;;;4.93;1.90;;;20.70;75.80;;;;;;5052028;28;20250;-58
2022/08/24 05:37:55;;;;;;;2.80;1.90;;;20.90;74.70;;;;;;5051885;28;20718;-58
2022/08/24 05:40:22;;;;;;;2.00;1.90;;;21.00;74.20;;;;;;5051848;28;20247;-58
2022/08/24 05:42:47;;;;;;;2.95;1.73;;;21.20;74.10;;;;;;5052150;28;20556;-58
2022/08/24 05:45:13;;;;;;;2.17;1.83;;;21.40;73.30;;;;;;5051879;28;20170;-59
2022/08/24 05:47:39;;;;;;;3.00;1.90;;;21.60;72.70;;;;;;5051557;28;20280;-58
2022/08/24 05:50:06;;;;;;;2.13;1.90;;;21.90;72.10;;;;;;5051658;28;20762;-58
2022/08/24 05:52:33;;;;;;;2.10;1.90;;;22.10;71.00;;;;;;5050320;28;20213;-58
2022/08/24 05:54:59;;;;;;;2.30;2.10;;;22.40;70.20;;;;;;5051591;28;20189;-58
2022/08/24 05:57:29;;;;;;;3.40;1.60;;;22.80;68.90;;;;;;5051174;28;20170;-58
2022/08/24 05:59:55;;;;;;;2.00;1.75;;;23.10;67.50;;;;;;5051682;28;20264;-59
2022/08/24 06:02:20;;;;;;;1.83;1.60;;;23.30;66.10;;;;;;5051561;28;20354;-58
2022/08/24 06:04:46;;;;;;;2.63;1.60;;;23.60;66.20;;;;;;5051308;28;20181;-59
2022/08/24 06:07:12;;;;;;;1.77;1.40;;;24.00;65.30;;;;;;5051055;28;20251;-59
2022/08/24 06:09:38;;;;;;;3.45;1.83;;;24.40;64.30;;;;;;5051567;28;20640;-58
2022/08/24 06:12:05;;;;;;;2.75;1.50;;;24.80;63.10;;;;;;5051195;28;20278;-58
2022/08/24 06:14:33;;;;;;;2.38;1.67;;;25.30;61.90;;;;;;5051521;28;20256;-59
2022/08/24 06:17:00;;;;;;;1.67;1.55;;;25.80;60.90;;;;;;5051232;28;20177;-60
2022/08/24 06:19:25;;;;;;;1.55;1.45;;;26.30;59.40;;;;;;5051699;28;20208;-59
2022/08/24 06:21:54;;;;;;;1.95;1.50;;;26.70;57.90;;;;;;5051608;28;20177;-59
2022/08/24 06:27:20;;;;;;;3.65;1.70;;;27.00;56.10;;;;;;5051763;28;20180;-59
2022/08/24 06:29:58;;;;;;;2.65;1.83;;;27.20;55.70;;;;;;5051436;28;20722;-59
2022/08/24 06:32:24;;;;;;;1.55;1.45;;;27.50;55.40;;;;;;5050835;28;20189;-59
2022/08/24 06:34:50;;;;;;;2.03;1.70;;;27.80;54.60;;;;;;5051428;28;20640;-60
2022/08/24 06:37:16;;;;;;;2.05;1.45;;;28.20;54.00;;;;;;5051009;28;20250;-59
2022/08/24 06:39:41;;;;;;;3.05;1.60;;;28.50;53.50;;;;;;5051333;28;20659;-60
2022/08/24 06:42:07;;;;;;;2.20;1.40;;;28.80;52.60;;;;;;5051067;28;20173;-59
2022/08/24 06:44:33;;;;;;;3.17;1.70;;;28.90;52.10;;;;;;5051087;28;20173;-60
2022/08/24 06:46:58;;;;;;;2.28;1.50;;;29.00;51.40;;;;;;5051269;28;20242;-60
2022/08/24 06:49:24;;;;;;;1.67;1.58;;;28.90;51.30;;;;;;5051232;28;20186;-59
2022/08/24 06:51:50;;;;;;;6.13;1.77;;;28.80;51.30;;;;;;5051330;28;20226;-59
2022/08/24 06:54:16;;;;;;;3.88;1.80;;;28.60;52.50;;;;;;5050809;28;20220;-59
2022/08/24 06:56:42;;;;;;;1.58;1.48;;;28.50;52.10;;;;;;5050653;28;20189;-59
2022/08/24 06:59:07;;;;;;;3.42;1.95;;;28.60;52.50;;;;;;5051181;28;20181;-59
2022/08/24 07:01:33;;;;;;;2.40;1.65;;;28.90;51.70;;;;;;5050690;28;20221;-60
2022/08/24 07:03:58;;;;;;;4.80;1.73;;;29.30;51.10;;;;;;5050799;28;20182;-60
2022/08/24 07:06:24;;;;;;;2.20;1.70;;;29.70;50.50;;;;;;5050662;28;20189;-60
2022/08/24 07:08:51;;;;;;;1.92;1.60;;;29.90;49.60;;;;;;5051077;28;20547;-60
2022/08/24 07:11:18;;;;;;;1.52;1.42;;;30.20;49.80;;;;;;5051026;28;20205;-60
2022/08/24 07:13:46;;;;;;;3.00;1.90;;;30.40;49.40;;;;;;5050184;28;20217;-60
2022/08/24 07:16:12;;;;;;;2.92;1.75;;;30.70;49.50;;;;;;5044320;28;20663;-60
2022/08/24 07:18:39;;;;;;;4.75;1.67;;;31.00;48.70;;;;;;5051199;28;20181;-60
2022/08/24 07:21:05;;;;;;;4.95;1.90;;;31.10;48.30;;;;;;5054555;28;20247;-60
2022/08/24 07:23:31;;;;;;;4.20;1.63;;;31.30;48.20;;;;;;5054596;28;20267;-60
2022/08/24 07:26:08;;;;;;;4.95;1.80;;;31.40;48.20;;;;;;5053795;28;20612;-60
2022/08/24 07:28:38;;;;;;;2.35;1.40;;;31.40;47.50;;;;;;5054453;28;20177;-60
2022/08/24 07:31:04;;;;;;;3.88;1.70;;;31.20;47.10;;;;;;5054281;28;20712;-60
2022/08/24 07:33:32;;;;;;;2.35;1.42;;;30.90;47.90;;;;;;5054167;28;20215;-60
2022/08/24 07:35:58;;;;;;;2.55;1.80;;;30.60;48.00;;;;;;5054330;28;20227;-60
2022/08/24 07:38:24;;;;;;;2.08;1.60;;;30.30;48.90;;;;;;5053975;28;20187;-60
2022/08/24 07:40:49;;;;;;;2.45;1.60;;;30.40;49.00;;;;;;5054295;28;20263;-60
2022/08/24 07:43:16;;;;;;;2.85;1.70;;;30.40;48.90;;;;;;5053816;28;20177;-60
2022/08/24 07:45:41;;;;;;;1.83;1.70;;;30.50;49.00;;;;;;5053556;28;20196;-60
2022/08/24 07:48:08;;;;;;;2.03;1.90;;;30.50;48.80;;;;;;5054034;28;20178;-60
2022/08/24 07:50:34;;;;;;;2.22;1.80;;;30.50;48.50;;;;;;5054269;28;20268;-60
2022/08/24 07:53:00;;;;;;;1.90;1.60;;;30.50;48.50;;;;;;5053274;28;20263;-61
2022/08/24 07:55:26;;;;;;;2.65;1.60;;;30.50;49.00;;;;;;5051751;28;20663;-59
2022/08/24 07:57:51;;;;;;;3.85;1.70;;;30.60;48.50;;;;;;5053635;28;20221;-62
2022/08/24 08:00:18;;;;;;;2.53;1.63;;;30.70;48.50;;;;;;5053885;28;20181;-61
2022/08/24 08:02:46;;;;;;;1.90;1.73;;;30.90;48.50;;;;;;5052765;28;20737;-61
2022/08/24 08:05:13;;;;;;;4.20;1.63;;;31.40;48.40;;;;;;5053514;28;20275;-59
2022/08/24 08:07:39;;;;;;;2.28;1.65;;;32.00;46.70;;;;;;5053446;28;20185;-62
2022/08/24 08:10:05;;;;;;;3.38;1.52;;;32.50;46.40;;;;;;5053728;28;20234;-61
2022/08/24 08:12:30;;;;;;;2.45;1.75;;;32.90;45.60;;;;;;5052748;28;20605;-62
2022/08/24 08:14:56;;;;;;;2.55;1.60;;;33.30;44.80;;;;;;5053160;28;20197;-62
2022/08/24 08:17:22;;;;;;;1.58;1.33;;;33.70;44.30;;;;;;5053167;28;20219;-63
2022/08/24 08:19:47;;;;;;;3.78;1.48;;;33.80;43.80;;;;;;5052019;28;20184;-63
2022/08/24 08:24:57;;;;;;;1.70;1.60;;;33.90;43.30;;;;;;5053409;28;20234;-62
2022/08/24 08:27:24;;;;;;;2.45;1.50;;;33.80;43.90;;;;;;5052691;28;20255;-63
2022/08/24 08:29:50;;;;;;;1.60;1.50;;;33.60;42.20;;;;;;5051814;28;20185;-63
2022/08/24 08:32:16;;;;;;;1.60;1.50;;;33.40;42.20;;;;;;5052549;28;20181;-63
2022/08/24 08:34:42;;;;;;;2.42;1.63;;;33.30;42.30;;;;;;5053371;28;20655;-63
2022/08/24 08:37:08;;;;;;;2.88;1.63;;;33.10;42.90;;;;;;5053240;28;20184;-63
2022/08/24 08:39:34;;;;;;;1.50;1.40;;;33.30;43.00;;;;;;5052835;28;20184;-63
2022/08/24 08:42:04;;;;;;;1.73;1.63;;;33.60;42.80;;;;;;5051711;28;20231;-63
2022/08/24 08:44:33;;;;;;;3.22;1.45;;;33.80;41.80;;;;;;5053064;28;20180;-63
2022/08/24 08:47:19;;;;;;;1.98;1.60;;;33.80;42.10;;;;;;5052775;28;20177;-63
2022/08/24 08:50:03;;;;;;;2.17;1.52;;;33.90;42.00;;;;;;5052380;28;20181;-63
2022/08/24 08:52:54;;;;;;;2.17;1.70;;;34.00;41.20;;;;;;5053140;28;20252;-64
2022/08/24 08:55:29;;;;;;;1.90;1.80;;;33.60;41.40;;;;;;5053188;28;20188;-63
2022/08/24 08:58:28;;;;;;;2.22;1.50;;;33.50;42.00;;;;;;5053074;28;20180;-64
2022/08/24 09:01:25;;;;;;;1.85;1.70;;;33.60;42.40;;;;;;5052698;28;20239;-63
2022/08/24 09:04:02;;;;;;;2.88;1.60;;;33.80;42.60;;;;;;5052864;28;20181;-63
2022/08/24 09:06:34;;;;;;;2.92;1.80;;;34.10;41.60;;;;;;5053023;28;20172;-63
2022/08/24 09:09:09;;;;;;;1.77;1.65;;;34.30;41.50;;;;;;5052928;28;20211;-63
2022/08/24 09:11:42;;;;;;;2.92;1.40;;;34.50;41.50;;;;;;5052517;28;20165;-63
2022/08/24 09:14:42;;;;;;;3.92;1.80;;;34.50;40.80;;;;;;5052515;28;20208;-63
2022/08/24 09:17:24;;;;;;;1.88;1.70;;;34.50;41.20;;;;;;5052700;28;20542;-64
2022/08/24 09:20:12;;;;;;;2.25;1.55;;;34.20;40.90;;;;;;5052425;28;20184;-63
2022/08/24 09:22:42;;;;;;;2.00;1.63;;;34.00;41.50;;;;;;5052667;28;20193;-63
2022/08/24 09:25:30;;;;;;;1.65;1.50;;;34.00;42.70;;;;;;5052510;28;20161;-63
2022/08/24 09:28:43;;;;;;;1.60;1.50;;;34.10;41.60;;;;;;5052359;28;20173;-63
2022/08/24 09:31:28;;;;;;;2.00;1.45;;;33.90;41.60;;;;;;5052331;28;20177;-63
2022/08/24 09:34:07;;;;;;;3.05;1.55;;;33.70;41.40;;;;;;5052034;28;20213;-63
2022/08/24 09:37:01;;;;;;;2.42;1.35;;;33.50;41.70;;;;;;5052270;28;20302;-63
2022/08/24 09:39:37;;;;;;;1.67;1.50;;;33.30;42.50;;;;;;5052266;28;20208;-64
2022/08/24 09:42:44;;;;;;;3.42;1.75;;;33.10;42.70;;;;;;5051589;28;20177;-63
2022/08/24 09:45:19;;;;;;;5.93;1.63;;;32.90;43.00;;;;;;5052181;28;20231;-64
2022/08/24 09:48:11;;;;;;;2.50;1.70;;;33.00;43.10;;;;;;5052120;28;20663;-63
2022/08/24 09:50:56;;;;;;;4.03;1.63;;;33.20;44.40;;;;;;5052153;28;20196;-64
2022/08/24 09:53:56;;;;;;;1.45;1.35;;;33.20;42.50;;;;;;5051989;28;20255;-63
2022/08/24 09:56:52;;;;;;;2.60;1.50;;;33.30;42.80;;;;;;5052070;28;20196;-64
2022/08/24 09:59:47;;;;;;;2.67;1.30;;;33.30;42.10;;;;;;5051993;28;20313;-63
2022/08/24 10:02:29;;;;;;;2.58;1.50;;;32.80;42.10;;;;;;5051579;28;20307;-63
2022/08/24 10:05:28;;;;;;;3.45;1.20;;;32.60;42.90;;;;;;5051834;28;20242;-63
2022/08/24 10:08:03;;;;;;;3.80;1.50;;;32.60;42.90;;;;;;5051645;28;20170;-63
2022/08/24 10:10:56;;;;;;;2.03;1.20;;;32.70;43.40;;;;;;5051943;28;20180;-64
2022/08/24 10:14:09;;;;;;;2.28;1.30;;;32.90;42.60;;;;;;5051761;28;20708;-63
2022/08/24 10:16:46;;;;;;;5.38;1.40;;;32.90;41.50;;;;;;5039452;28;20666;-64
2022/08/24 10:19:38;;;;;;;1.63;1.30;;;33.10;42.10;;;;;;5051489;28;20700;-63
2022/08/24 10:22:33;;;;;;;5.65;1.30;;;33.30;42.00;;;;;;5041727;28;20185;-64
2022/08/24 10:25:29;;;;;;;2.17;1.42;;;33.30;41.90;;;;;;5051696;28;20184;-63
2022/08/24 10:28:26;;;;;;;4.13;1.67;;;33.30;42.10;;;;;;5051573;28;20173;-63
2022/08/24 10:31:39;;;;;;;2.63;1.70;;;33.60;42.70;;;;;;5051415;28;20754;-63
2022/08/24 10:34:48;;;;;;;1.58;1.48;;;34.20;42.20;;;;;;5029089;28;20632;-63
2022/08/24 10:37:31;;;;;;;2.55;1.50;;;34.50;41.50;;;;;;5029274;28;20178;-64
2022/08/24 10:40:20;;;;;;;1.50;1.40;;;34.70;40.30;;;;;;5050119;28;20208;-64
2022/08/24 10:46:21;;;;;;;2.33;1.48;;;34.20;40.30;;;;;;5051653;28;20647;-64
2022/08/24 10:49:05;;;;;;;1.55;1.35;;;34.10;41.10;;;;;;5051491;28;20172;-64
2022/08/24 10:51:49;;;;;;;2.92;1.45;;;34.20;40.40;;;;;;5051332;28;20564;-64
2022/08/24 10:54:18;;;;;;;3.22;1.40;;;34.30;40.70;;;;;;5052934;28;20561;-63
2022/08/24 10:57:04;;;;;;;4.10;1.58;;;34.30;41.20;;;;;;5055279;28;20218;-64
2022/08/24 10:59:35;;;;;;;1.92;1.70;;;34.30;40.60;;;;;;5055282;28;20177;-64
2022/08/24 11:02:04;;;;;;;1.77;1.30;;;34.20;40.40;;;;;;5055063;28;20228;-64
2022/08/24 11:04:33;;;;;;;1.52;1.42;;;34.10;40.30;;;;;;5055125;28;20188;-64
2022/08/24 11:07:08;;;;;;;1.48;1.35;;;34.00;40.50;;;;;;5055159;28;20165;-64
2022/08/24 11:09:59;;;;;;;1.58;1.40;;;34.10;40.60;;;;;;5054347;28;20702;-64
2022/08/24 11:12:30;;;;;;;1.77;1.50;;;34.10;40.40;;;;;;5032287;28;20228;-62
2022/08/24 11:14:58;;;;;;;5.43;1.50;;;34.00;40.40;;;;;;5039614;28;20259;-64
2022/08/24 11:17:27;;;;;;;2.30;1.38;;;33.80;40.50;;;;;;5054917;28;20185;-63
2022/08/24 11:19:52;;;;;;;1.45;1.35;;;33.80;40.40;;;;;;5054388;28;20189;-63
2022/08/24 11:22:36;;;;;;;2.25;1.70;;;33.60;40.60;;;;;;5054860;28;20686;-62
2022/08/24 11:25:28;;;;;;;2.00;1.50;;;33.40;40.80;;;;;;5054492;28;20855;-62
2022/08/24 11:28:09;;;;;;;2.92;1.60;;;33.60;41.30;;;;;;5054603;28;20219;-62
2022/08/24 11:30:39;;;;;;;1.50;1.40;;;33.50;40.60;;;;;;5053475;28;20234;-63
2022/08/24 11:33:25;;;;;;;2.72;1.63;;;33.40;40.40;;;;;;5054538;28;20236;-62
2022/08/24 11:35:51;;;;;;;2.30;1.30;;;33.50;40.70;;;;;;5034622;28;20205;-64
2022/08/24 11:38:33;;;;;;;1.50;1.40;;;33.70;40.80;;;;;;5034730;28;20216;-62
2022/08/24 11:41:23;;;;;;;1.50;1.40;;;33.90;40.30;;;;;;5053106;28;20600;-63
2022/08/24 11:44:04;;;;;;;1.55;1.40;;;34.20;40.00;;;;;;5052714;28;20191;-63
2022/08/24 11:47:12;;;;;;;1.60;1.50;;;34.50;40.20;;;;;;5054415;28;20201;-63
2022/08/24 11:49:43;;;;;;;4.72;1.40;;;34.60;39.10;;;;;;5031442;28;20243;-64
2022/08/24 11:52:49;;;;;;;1.70;1.60;;;34.30;39.10;;;;;;5072813;28;20180;-63
2022/08/24 11:55:26;;;;;;;1.48;1.38;;;34.20;39.20;;;;;;5074499;28;20552;-63
2022/08/24 11:58:01;;;;;;;2.28;1.30;;;34.20;39.00;;;;;;5073977;28;20172;-63
2022/08/24 12:00:38;;;;;;;2.60;1.40;;;34.30;38.70;;;;;;5074332;28;20502;-64
2022/08/24 12:03:21;;;;;;;2.25;1.40;;;34.30;38.70;;;;;;5059915;28;20192;-64
2022/08/24 12:05:49;;;;;;;1.58;1.42;;;34.30;38.10;;;;;;5034642;28;20203;-63
2022/08/24 12:08:33;;;;;;;3.13;1.50;;;34.00;38.10;;;;;;5051381;28;20193;-63
2022/08/24 12:11:28;;;;;;;1.83;1.63;;;33.80;38.60;;;;;;5053950;28;20185;-63
2022/08/24 12:14:08;;;;;;;2.33;1.77;;;33.50;38.50;;;;;;5053373;28;20208;-63
2022/08/24 12:16:58;;;;;;;2.97;1.50;;;33.50;39.10;;;;;;5052952;28;20177;-63
2022/08/24 12:19:30;;;;;;;2.22;1.20;;;33.40;39.20;;;;;;5044570;28;20181;-64
2022/08/24 12:22:00;;;;;;;1.50;1.40;;;33.60;39.40;;;;;;5053807;28;20181;-64
2022/08/24 12:24:43;;;;;;;2.75;1.50;;;33.80;39.30;;;;;;5053792;28;20166;-64
2022/08/24 12:27:14;;;;;;;2.55;1.50;;;33.90;38.50;;;;;;5053705;28;20181;-64
2022/08/24 12:29:50;;;;;;;4.05;2.00;;;33.90;38.00;;;;;;5053621;28;20172;-66
2022/08/24 12:32:22;;;;;;;3.65;1.70;;;33.80;38.80;;;;;;5053633;28;20184;-64
2022/08/24 12:35:17;;;;;;;1.75;1.50;;;33.80;38.60;;;;;;5053389;28;20213;-64
2022/08/24 12:37:50;;;;;;;3.53;1.63;;;33.90;38.20;;;;;;5053471;28;20173;-64
2022/08/24 12:40:56;;;;;;;2.30;1.65;;;34.00;38.50;;;;;;5053425;28;20195;-64
2022/08/24 12:43:39;;;;;;;1.60;1.50;;;33.90;38.20;;;;;;5031129;28;20185;-64
2022/08/24 12:46:05;;;;;;;3.80;1.67;;;33.90;38.60;;;;;;5031021;28;20240;-64
2022/08/24 12:48:47;;;;;;;2.00;1.73;;;33.80;38.50;;;;;;5031538;28;20263;-65
2022/08/24 12:51:51;;;;;;;1.98;1.77;;;33.90;38.40;;;;;;5033555;28;20181;-65
2022/08/24 12:54:16;;;;;;;3.65;1.48;;;33.80;38.70;;;;;;5052630;28;20212;-64
2022/08/24 12:57:00;;;;;;;1.40;1.25;;;33.80;39.50;;;;;;5053063;28;20178;-64
2022/08/24 12:59:31;;;;;;;2.03;1.60;;;34.00;39.60;;;;;;5051434;28;20185;-64
2022/08/24 13:02:17;;;;;;;1.83;1.73;;;34.00;38.60;;;;;;5052425;28;20235;-64
2022/08/24 13:04:49;;;;;;;5.57;1.77;;;33.90;38.70;;;;;;5052969;28;20662;-64
2022/08/24 13:07:17;;;;;;;3.30;1.65;;;34.00;38.50;;;;;;5051533;28;20573;-64
2022/08/24 13:10:08;;;;;;;2.25;1.45;;;33.90;38.30;;;;;;5052655;28;20667;-63
2022/08/24 13:12:42;;;;;;;3.75;1.40;;;33.70;38.30;;;;;;5052260;28;20579;-65
2022/08/24 13:15:26;;;;;;;2.28;1.40;;;33.60;38.50;;;;;;5052342;28;20190;-64
2022/08/24 13:17:59;;;;;;;1.73;1.52;;;33.60;39.20;;;;;;5051526;28;20211;-64
2022/08/24 13:20:34;;;;;;;1.95;1.60;;;33.50;39.20;;;;;;5032728;28;20193;-64
2022/08/24 13:23:12;;;;;;;3.30;1.50;;;33.50;39.50;;;;;;5043168;28;20528;-64